createdAt,value
2023-01-18T00:00:15.025Z,15.43
2023-01-18T00:03:18.816Z,20.30
2023-01-18T00:06:22.581Z,15.70
2023-01-18T00:09:27.953Z,12.87
2023-01-18T00:12:31.836Z,15.00
2023-01-18T00:15:36.960Z,13.20
2023-01-18T00:18:41.279Z,13.43
2023-01-18T00:21:45.078Z,13.50
2023-01-18T00:24:50.148Z,12.63
2023-01-18T00:27:55.381Z,9.57
2023-01-18T00:30:59.239Z,8.23
2023-01-18T00:34:03.482Z,13.07
2023-01-18T00:37:07.279Z,8.87
2023-01-18T00:40:13.167Z,7.40
2023-01-18T00:43:33.911Z,12.57
2023-01-18T00:46:37.821Z,6.20
2023-01-18T00:49:41.334Z,10.90
2023-01-18T00:52:46.598Z,5.77
2023-01-18T00:55:51.631Z,5.40
2023-01-18T00:58:55.167Z,9.80
2023-01-18T01:01:58.884Z,5.23
2023-01-18T01:05:24.972Z,6.00
2023-01-18T01:08:28.687Z,8.43
2023-01-18T01:11:33.813Z,9.70
2023-01-18T01:14:56.752Z,7.00
2023-01-18T01:18:17.827Z,8.57
2023-01-18T01:21:39.131Z,6.30
2023-01-18T01:25:00.168Z,7.60
2023-01-18T01:28:05.279Z,10.37
2023-01-18T01:31:10.624Z,6.43
2023-01-18T01:34:14.482Z,4.93
2023-01-18T01:37:18.073Z,7.53
2023-01-18T01:40:21.735Z,13.23
2023-01-18T01:43:42.645Z,7.87
2023-01-18T01:46:50.400Z,11.03
2023-01-18T01:49:59.751Z,10.40
2023-01-18T01:53:04.025Z,6.97
2023-01-18T01:56:08.981Z,8.60
2023-01-18T01:59:15.755Z,9.70
2023-01-18T02:02:19.766Z,9.87
2023-01-18T02:05:24.506Z,8.50
2023-01-18T02:08:30.034Z,9.27
2023-01-18T02:11:33.860Z,9.33
2023-01-18T02:14:39.467Z,8.83
2023-01-18T02:18:01.969Z,8.77
2023-01-18T02:21:18.284Z,14.47
2023-01-18T02:25:05.229Z,6.77
2023-01-18T02:28:15.863Z,5.63
2023-01-18T02:31:21.045Z,7.67
2023-01-18T02:34:33.596Z,15.17
2023-01-18T02:37:45.362Z,17.67
2023-01-18T02:41:02.071Z,8.63
2023-01-18T02:44:24.279Z,13.03
2023-01-18T02:47:30.054Z,10.60
2023-01-18T02:50:33.638Z,8.77
2023-01-18T02:53:40.151Z,7.33
2023-01-18T02:56:48.717Z,8.23
2023-01-18T02:59:57.040Z,10.53
2023-01-18T03:03:01.504Z,29.73
2023-01-18T03:06:09.370Z,14.27
2023-01-18T03:09:21.745Z,10.40
2023-01-18T03:12:28.652Z,10.47
2023-01-18T03:15:44.887Z,121.10
2023-01-18T03:19:04.364Z,49.13
2023-01-18T03:22:08.084Z,13.80
2023-01-18T03:25:13.798Z,20.67
2023-01-18T03:28:38.478Z,9.30
2023-01-18T03:32:05.684Z,10.20
2023-01-18T03:35:14.291Z,12.93
2023-01-18T03:38:19.158Z,10.50
2023-01-18T03:41:26.339Z,12.20
2023-01-18T03:44:36.432Z,11.73
2023-01-18T03:47:41.717Z,14.33
2023-01-18T03:50:50.866Z,27.53
2023-01-18T03:54:02.770Z,16.40
2023-01-18T03:57:12.772Z,55.17
2023-01-18T04:00:17.726Z,17.97
2023-01-18T04:03:22.817Z,10.50
2023-01-18T04:06:26.729Z,11.10
2023-01-18T04:09:30.586Z,18.63
2023-01-18T04:12:35.241Z,17.80
2023-01-18T04:15:38.995Z,8.37
2023-01-18T04:18:44.073Z,13.80
2023-01-18T04:21:47.633Z,13.30
2023-01-18T04:24:51.339Z,10.93
2023-01-18T04:27:54.951Z,12.17
2023-01-18T04:30:58.806Z,10.50
2023-01-18T04:34:03.742Z,10.47
2023-01-18T04:37:07.377Z,11.90
2023-01-18T04:40:12.000Z,11.23
2023-01-18T04:43:15.534Z,22.30
2023-01-18T04:46:19.337Z,18.83
2023-01-18T04:49:24.484Z,15.40
2023-01-18T04:52:32.331Z,15.23
2023-01-18T04:55:35.849Z,21.80
2023-01-18T04:58:39.929Z,15.83
2023-01-18T05:01:43.750Z,18.00
2023-01-18T05:04:49.004Z,16.07
2023-01-18T05:07:52.712Z,25.83
2023-01-18T05:11:02.688Z,11.63
2023-01-18T05:14:06.333Z,16.47
2023-01-18T05:17:10.266Z,9.87
2023-01-18T05:20:15.617Z,16.43
2023-01-18T05:23:19.459Z,18.87
2023-01-18T05:26:25.842Z,18.70
2023-01-18T05:29:29.370Z,13.03
2023-01-18T05:32:33.039Z,9.70
2023-01-18T05:35:38.295Z,21.50
2023-01-18T05:38:42.071Z,25.20
2023-01-18T05:41:46.064Z,15.23
2023-01-18T05:44:49.781Z,14.80
2023-01-18T05:47:56.019Z,13.30
2023-01-18T05:51:01.012Z,20.03
2023-01-18T05:54:04.666Z,15.17
2023-01-18T05:57:08.478Z,20.07
2023-01-18T06:00:13.287Z,21.47
2023-01-18T06:03:17.099Z,15.70
2023-01-18T06:06:22.478Z,20.20
2023-01-18T06:09:26.259Z,20.77
2023-01-18T06:12:30.005Z,27.67
2023-01-18T06:15:34.069Z,13.93
2023-01-18T06:18:39.841Z,15.90
2023-01-18T06:21:45.118Z,16.23
2023-01-18T06:24:48.941Z,15.43
2023-01-18T06:27:52.934Z,25.30
2023-01-18T06:30:57.805Z,14.07
2023-01-18T06:34:07.081Z,15.87
2023-01-18T06:37:12.958Z,15.87
2023-01-18T06:40:17.918Z,20.93
2023-01-18T06:43:22.090Z,30.87
2023-01-18T06:46:25.921Z,19.37
2023-01-18T06:49:30.295Z,17.40
2023-01-18T06:52:35.559Z,16.97
2023-01-18T06:55:39.419Z,21.93
2023-01-18T06:58:43.558Z,22.03
2023-01-18T07:01:48.056Z,13.20
2023-01-18T07:04:51.899Z,21.57
2023-01-18T07:07:57.179Z,20.93
2023-01-18T07:11:05.054Z,20.67
2023-01-18T07:14:08.858Z,20.27
2023-01-18T07:17:12.699Z,19.00
2023-01-18T07:20:17.127Z,23.97
2023-01-18T07:23:22.300Z,18.47
2023-01-18T07:26:27.100Z,28.63
2023-01-18T07:29:31.060Z,24.87
2023-01-18T07:32:34.799Z,24.20
2023-01-18T07:35:38.760Z,21.43
2023-01-18T07:38:44.351Z,18.83
2023-01-18T07:41:48.320Z,34.23
2023-01-18T07:44:54.538Z,91.47
2023-01-18T07:47:58.438Z,31.23
2023-01-18T07:51:04.141Z,19.40
2023-01-18T07:54:09.560Z,28.60
2023-01-18T07:57:13.622Z,234.67
2023-01-18T08:00:17.684Z,64.47
2023-01-18T08:03:21.941Z,40.30
2023-01-18T08:06:27.477Z,31.77
2023-01-18T08:09:34.164Z,37.60
2023-01-18T08:12:38.061Z,53.07
2023-01-18T08:15:41.940Z,46.37
2023-01-18T08:18:46.398Z,65.23
2023-01-18T08:21:50.241Z,37.03
2023-01-18T08:24:55.520Z,23.47
2023-01-18T08:28:00.262Z,32.03
2023-01-18T08:31:12.658Z,15.10
2023-01-18T08:34:16.482Z,17.53
2023-01-18T08:37:20.446Z,10.53
2023-01-18T08:40:27.496Z,16.53
2023-01-18T08:43:31.504Z,19.03
2023-01-18T08:46:36.515Z,19.93
2023-01-18T08:49:40.259Z,16.00
2023-01-18T08:52:44.079Z,10.93
2023-01-18T08:55:49.839Z,20.13
2023-01-18T08:58:53.917Z,14.53
2023-01-18T09:01:58.963Z,18.70
2023-01-18T09:05:02.898Z,15.77
2023-01-18T09:08:07.200Z,16.40
2023-01-18T09:11:12.607Z,17.60
2023-01-18T09:14:16.952Z,13.82
2023-01-18T09:17:21.479Z,14.45
2023-01-18T09:20:25.718Z,14.65
2023-01-18T09:23:29.823Z,18.08
2023-01-18T09:26:35.166Z,12.75
2023-01-18T09:29:38.979Z,13.20
2023-01-18T09:32:42.872Z,9.30
2023-01-18T09:35:48.026Z,11.65
2023-01-18T09:38:51.801Z,18.45
2023-01-18T09:42:00.156Z,10.45
2023-01-18T09:45:05.079Z,10.38
2023-01-18T09:48:17.798Z,10.63
2023-01-18T09:51:24.487Z,9.05
2023-01-18T09:54:40.326Z,11.23
2023-01-18T09:58:00.526Z,11.30
2023-01-18T10:01:08.418Z,8.25
2023-01-18T10:04:18.701Z,8.48
2023-01-18T10:07:24.808Z,9.60
2023-01-18T10:10:29.562Z,10.73
2023-01-18T10:13:46.979Z,7.75
2023-01-18T10:16:57.064Z,8.70
2023-01-18T10:20:01.905Z,6.72
2023-01-18T10:23:16.240Z,8.90
2023-01-18T10:26:27.326Z,6.40
2023-01-18T10:29:50.684Z,8.65
2023-01-18T10:32:58.260Z,7.80
2023-01-18T10:36:09.607Z,10.20
2023-01-18T10:39:31.286Z,7.20
2023-01-18T10:42:41.240Z,13.18
2023-01-18T10:45:46.769Z,10.57
2023-01-18T10:48:51.922Z,6.38
2023-01-18T10:51:55.719Z,8.57
2023-01-18T10:55:01.859Z,10.32
2023-01-18T10:58:05.779Z,7.70
2023-01-18T11:01:18.011Z,5.60
2023-01-18T11:04:24.448Z,5.32
2023-01-18T11:07:29.679Z,11.50
2023-01-18T11:10:33.779Z,8.32
2023-01-18T11:13:43.884Z,12.13
2023-01-18T11:16:59.502Z,16.35
2023-01-18T11:20:07.825Z,9.00
2023-01-18T11:23:21.301Z,13.38
2023-01-18T11:26:25.559Z,16.23
2023-01-18T11:29:31.639Z,11.40
2023-01-18T11:32:38.221Z,12.65
2023-01-18T11:35:42.039Z,12.13
2023-01-18T11:38:45.939Z,12.40
2023-01-18T11:41:50.206Z,10.88
2023-01-18T11:45:05.943Z,12.48
2023-01-18T11:48:16.419Z,12.05
2023-01-18T11:51:28.059Z,11.32
2023-01-18T11:54:38.488Z,20.10
2023-01-18T11:57:43.856Z,14.35
2023-01-18T12:00:59.656Z,18.40
2023-01-18T12:04:12.660Z,12.75
2023-01-18T12:07:31.926Z,16.88
2023-01-18T12:10:43.759Z,12.70
2023-01-18T12:14:01.134Z,19.25
2023-01-18T12:17:38.058Z,21.67
2023-01-18T12:20:52.980Z,18.98
2023-01-18T12:24:11.638Z,15.55
2023-01-18T12:27:24.679Z,23.35
2023-01-18T12:30:50.287Z,12.02
2023-01-18T12:34:00.498Z,17.17
2023-01-18T12:37:20.280Z,17.08
2023-01-18T12:40:40.920Z,14.50
2023-01-18T12:43:57.580Z,23.67
2023-01-18T12:47:14.369Z,18.98
2023-01-18T12:50:25.586Z,18.50
2023-01-18T12:53:44.879Z,17.17
2023-01-18T12:56:52.079Z,15.00
2023-01-18T12:59:59.380Z,16.30
2023-01-18T13:03:11.219Z,20.67
2023-01-18T13:06:16.097Z,21.73
2023-01-18T13:09:24.918Z,19.83
2023-01-18T13:12:29.501Z,30.67
2023-01-18T13:15:44.499Z,20.45
2023-01-18T13:18:56.459Z,20.58
2023-01-18T13:22:08.838Z,21.88
2023-01-18T13:25:34.063Z,20.50
2023-01-18T13:28:38.786Z,25.85
2023-01-18T13:31:42.700Z,22.30
2023-01-18T13:34:49.012Z,23.65
2023-01-18T13:37:56.250Z,33.70
2023-01-18T13:41:04.217Z,23.95
2023-01-18T13:44:27.071Z,20.17
2023-01-18T13:47:51.064Z,21.55
2023-01-18T13:50:54.927Z,27.20
2023-01-18T13:53:58.747Z,23.52
2023-01-18T13:57:18.319Z,21.90
2023-01-18T14:00:26.015Z,25.42
2023-01-18T14:03:32.626Z,31.92
2023-01-18T14:06:39.599Z,28.50
2023-01-18T14:09:46.959Z,24.10
2023-01-18T14:12:54.038Z,38.40
2023-01-18T14:16:00.480Z,26.08
2023-01-18T14:19:17.306Z,23.65
2023-01-18T14:22:33.197Z,27.85
2023-01-18T14:25:53.619Z,27.50
2023-01-18T14:29:02.125Z,36.33
2023-01-18T14:32:10.799Z,25.25
2023-01-18T14:35:20.978Z,24.90
2023-01-18T14:38:24.896Z,21.63
2023-01-18T14:41:29.610Z,30.33
2023-01-18T14:44:56.956Z,27.17
2023-01-18T14:48:04.342Z,30.67
2023-01-18T14:51:08.320Z,25.95
2023-01-18T14:54:18.816Z,33.63
2023-01-18T14:57:24.077Z,29.17
2023-01-18T15:00:29.499Z,37.07
2023-01-18T15:03:33.859Z,37.07
2023-01-18T15:06:41.469Z,22.10
2023-01-18T15:09:46.239Z,38.40
2023-01-18T15:12:53.839Z,33.90
2023-01-18T15:16:01.514Z,35.23
2023-01-18T15:19:05.641Z,36.90
2023-01-18T15:22:13.797Z,38.57
2023-01-18T15:25:21.858Z,31.90
2023-01-18T15:28:31.820Z,30.53
2023-01-18T15:31:46.347Z,31.63
2023-01-18T15:34:51.859Z,40.83
2023-01-18T15:37:55.661Z,33.03
2023-01-18T15:41:04.419Z,35.90
2023-01-18T15:44:20.538Z,34.80
2023-01-18T15:47:30.138Z,42.33
2023-01-18T15:50:37.706Z,32.33
2023-01-18T15:53:46.380Z,34.90
2023-01-18T15:56:50.798Z,33.50
2023-01-18T15:59:55.558Z,44.60
2023-01-18T16:03:02.996Z,29.83
2023-01-18T16:06:13.852Z,44.63
2023-01-18T16:09:23.513Z,40.97
2023-01-18T16:12:36.701Z,36.50
2023-01-18T16:15:40.941Z,40.03
2023-01-18T16:18:49.204Z,112.37
2023-01-18T16:21:54.776Z,41.37
2023-01-18T16:25:01.719Z,57.77
2023-01-18T16:28:06.414Z,83.43
2023-01-18T16:31:10.409Z,138.70
2023-01-18T16:34:27.499Z,89.47
2023-01-18T16:37:31.838Z,92.07
2023-01-18T16:40:39.398Z,94.47
2023-01-18T16:43:45.098Z,71.13
2023-01-18T16:46:49.738Z,57.27
2023-01-18T16:49:55.098Z,85.53
2023-01-18T16:52:59.154Z,92.13
2023-01-18T16:56:02.978Z,70.77
2023-01-18T16:59:17.329Z,53.70
2023-01-18T17:02:21.322Z,56.83
2023-01-18T17:05:27.878Z,47.23
2023-01-18T17:08:31.906Z,59.67
2023-01-18T17:11:35.690Z,55.27
2023-01-18T17:14:39.582Z,54.83
2023-01-18T17:17:44.139Z,56.03
2023-01-18T17:20:49.410Z,58.03
2023-01-18T17:23:53.400Z,45.37
2023-01-18T17:26:57.239Z,57.30
2023-01-18T17:30:01.085Z,38.73
2023-01-18T17:33:04.903Z,47.37
2023-01-18T17:36:10.818Z,36.50
2023-01-18T17:39:15.698Z,45.73
2023-01-18T17:42:29.701Z,52.37
2023-01-18T17:45:34.120Z,56.67
2023-01-18T17:48:38.101Z,48.03
2023-01-18T17:51:43.399Z,59.80
2023-01-18T17:54:47.159Z,56.33
2023-01-18T17:57:50.938Z,60.57
2023-01-18T18:00:55.573Z,63.37
2023-01-18T18:03:59.468Z,58.97
2023-01-18T18:07:04.827Z,57.00
2023-01-18T18:10:09.920Z,58.67
2023-01-18T18:13:13.845Z,58.40
2023-01-18T18:16:18.849Z,46.30
2023-01-18T18:19:23.298Z,54.77
2023-01-18T18:22:28.743Z,49.30
2023-01-18T18:25:32.842Z,42.93
2023-01-18T18:28:36.707Z,42.13
2023-01-18T18:31:40.747Z,46.30
2023-01-18T18:34:44.699Z,49.47
2023-01-18T18:37:50.178Z,44.90
2023-01-18T18:40:54.719Z,59.23
2023-01-18T18:43:58.759Z,48.23
2023-01-18T18:47:04.868Z,63.70
2023-01-18T18:50:10.626Z,48.23
2023-01-18T18:53:16.922Z,66.70
2023-01-18T18:56:22.030Z,65.97
2023-01-18T18:59:25.840Z,70.77
2023-01-18T19:02:29.610Z,51.40
2023-01-18T19:05:34.565Z,43.43
2023-01-18T19:08:40.147Z,60.37
2023-01-18T19:11:50.639Z,81.60
2023-01-18T19:14:58.663Z,128.90
2023-01-18T19:18:02.457Z,103.37
2023-01-18T19:21:06.767Z,124.43
2023-01-18T19:24:11.959Z,116.67
2023-01-18T19:27:15.882Z,78.80
2023-01-18T19:30:20.265Z,83.07
2023-01-18T19:33:24.218Z,93.40
2023-01-18T19:36:28.201Z,90.70
2023-01-18T19:39:35.131Z,100.87
2023-01-18T19:42:39.519Z,92.47
2023-01-18T19:45:43.379Z,92.23
2023-01-18T19:48:47.240Z,115.07
2023-01-18T19:51:52.040Z,124.33
2023-01-18T19:54:58.971Z,111.77
2023-01-18T19:58:03.128Z,107.37
2023-01-18T20:01:11.524Z,103.53
2023-01-18T20:04:15.750Z,111.80
2023-01-18T20:07:19.699Z,101.63
2023-01-18T20:10:24.963Z,90.80
2023-01-18T20:13:30.201Z,97.60
2023-01-18T20:16:34.245Z,93.80
2023-01-18T20:19:38.172Z,328.97
2023-01-18T20:22:45.281Z,104.93
2023-01-18T20:25:53.320Z,116.40
2023-01-18T20:28:57.299Z,323.47
2023-01-18T20:32:13.476Z,238.27
2023-01-18T20:35:19.191Z,136.70
2023-01-18T20:38:23.038Z,125.17
2023-01-18T20:41:28.340Z,88.50
2023-01-18T20:44:32.426Z,74.07
2023-01-18T20:47:36.358Z,74.33
2023-01-18T20:50:40.219Z,68.50
2023-01-18T20:53:44.179Z,67.43
2023-01-18T20:56:49.559Z,79.93
2023-01-18T20:59:53.380Z,73.70
2023-01-18T21:02:57.425Z,51.07
2023-01-18T21:06:01.378Z,54.73
2023-01-18T21:09:05.607Z,100.07
2023-01-18T21:12:10.901Z,42.23
2023-01-18T21:15:14.707Z,60.43
2023-01-18T21:18:18.545Z,64.07
2023-01-18T21:21:22.482Z,53.73
2023-01-18T21:24:26.239Z,62.40
2023-01-18T21:27:33.439Z,49.70
2023-01-18T21:30:37.121Z,55.47
2023-01-18T21:33:41.029Z,44.57
2023-01-18T21:36:45.120Z,54.57
2023-01-18T21:39:48.996Z,40.60
2023-01-18T21:43:11.723Z,37.93
2023-01-18T21:46:15.603Z,44.20
2023-01-18T21:50:03.966Z,48.70
2023-01-18T21:53:18.181Z,51.67
2023-01-18T21:56:22.418Z,39.37
2023-01-18T21:59:27.639Z,42.77
2023-01-18T22:02:31.686Z,37.53
2023-01-18T22:05:35.507Z,38.57
2023-01-18T22:08:39.378Z,32.13
2023-01-18T22:11:43.624Z,49.37
2023-01-18T22:14:49.202Z,51.80
2023-01-18T22:17:53.339Z,40.93
2023-01-18T22:20:57.684Z,40.63
2023-01-18T22:24:01.676Z,39.17
2023-01-18T22:27:06.142Z,33.50
2023-01-18T22:30:13.387Z,35.93
2023-01-18T22:33:17.423Z,35.00
2023-01-18T22:36:21.449Z,34.83
2023-01-18T22:39:25.669Z,41.43
2023-01-18T22:42:29.691Z,40.13
2023-01-18T22:45:35.082Z,39.77
2023-01-18T22:48:40.144Z,33.60
2023-01-18T22:51:45.070Z,46.43
2023-01-18T22:54:49.004Z,32.47
2023-01-18T22:57:53.008Z,38.73
2023-01-18T23:00:58.548Z,37.17
2023-01-18T23:04:04.787Z,36.13
2023-01-18T23:07:08.875Z,35.00
2023-01-18T23:10:12.863Z,32.10
2023-01-18T23:13:16.982Z,40.37
2023-01-18T23:16:39.501Z,26.60
2023-01-18T23:19:43.552Z,32.13
2023-01-18T23:22:47.686Z,33.20
2023-01-18T23:25:55.975Z,28.63
2023-01-18T23:28:59.982Z,24.80
2023-01-18T23:32:05.673Z,33.00
2023-01-18T23:35:10.222Z,30.73
2023-01-18T23:38:14.165Z,33.60
2023-01-18T23:41:35.262Z,32.80
2023-01-18T23:44:56.985Z,32.60
2023-01-18T23:48:25.242Z,35.70
2023-01-18T23:51:46.201Z,41.23
2023-01-18T23:54:50.162Z,27.17
2023-01-18T23:57:54.231Z,24.73
